Time;durP1;ratioP1;P1;durP2;ratioP2;P2;SDS_P1;SDS_P2;PMS_P1;PMS_P2;Temp;Humidity;BMP_temperature;BMP_pressure;BME280_temperature;BME280_humidity;BME280_pressure;Samples;Min_cycle;Max_cycle;Signal;HPM_P1;HPM_P2
2021/08/18 00:00:55;;;;;;;6.90;4.03;;;16.60;70.00;;;;;;5044933;28;20067;-54
2021/08/18 00:03:40;;;;;;;8.85;4.00;;;16.60;69.80;;;;;;5043887;28;20037;-52
2021/08/18 00:06:24;;;;;;;7.82;4.10;;;16.60;69.80;;;;;;5044789;28;20217;-53
2021/08/18 00:09:08;;;;;;;7.82;4.32;;;16.60;69.80;;;;;;5045317;28;20346;-51
2021/08/18 00:11:52;;;;;;;10.77;4.47;;;16.50;70.00;;;;;;5045033;28;20079;-53
2021/08/18 00:14:37;;;;;;;8.20;4.35;;;16.60;70.20;;;;;;5044489;28;20044;-51
2021/08/18 00:17:21;;;;;;;8.10;4.25;;;16.60;70.30;;;;;;5044607;28;20052;-53
2021/08/18 00:20:06;;;;;;;9.48;4.57;;;16.60;70.40;;;;;;5044717;28;20072;-53
2021/08/18 00:22:50;;;;;;;9.18;4.45;;;16.50;69.90;;;;;;5044790;28;20048;-53
2021/08/18 00:25:34;;;;;;;7.85;4.30;;;16.50;69.60;;;;;;5044493;28;20066;-54
2021/08/18 00:28:19;;;;;;;9.18;4.28;;;16.50;69.80;;;;;;5044843;28;20047;-50
2021/08/18 00:31:03;;;;;;;11.43;4.65;;;16.50;69.90;;;;;;5044566;28;20270;-53
2021/08/18 00:33:48;;;;;;;8.77;4.85;;;16.40;69.90;;;;;;5044189;28;20071;-53
2021/08/18 00:36:32;;;;;;;9.23;4.50;;;16.50;70.00;;;;;;5044274;28;21984;-51
2021/08/18 00:39:16;;;;;;;8.05;4.20;;;16.50;70.00;;;;;;5044107;28;20071;-52
2021/08/18 00:42:01;;;;;;;8.55;4.55;;;16.40;70.20;;;;;;5044595;28;20067;-53
2021/08/18 00:44:45;;;;;;;8.80;4.63;;;16.40;70.30;;;;;;5044357;28;20062;-51
2021/08/18 00:47:29;;;;;;;9.68;5.18;;;16.40;70.70;;;;;;5044165;28;20058;-52
2021/08/18 00:50:16;;;;;;;10.38;4.85;;;16.50;70.60;;;;;;5044183;28;20221;-53
2021/08/18 00:53:00;;;;;;;11.18;4.97;;;16.40;70.60;;;;;;5043991;28;20036;-54
2021/08/18 00:55:44;;;;;;;8.45;4.53;;;16.40;70.60;;;;;;5044074;28;20068;-53
2021/08/18 00:58:29;;;;;;;10.30;4.90;;;16.50;70.60;;;;;;5043997;28;20037;-53
2021/08/18 01:01:13;;;;;;;9.02;4.80;;;16.50;70.70;;;;;;5043934;28;20401;-52
2021/08/18 01:03:58;;;;;;;10.68;4.72;;;16.50;70.80;;;;;;5044127;28;20347;-54
2021/08/18 01:06:43;;;;;;;9.98;5.32;;;16.50;70.60;;;;;;5044232;28;20021;-54
2021/08/18 01:09:28;;;;;;;8.25;4.82;;;16.60;70.60;;;;;;5043861;28;20074;-54
2021/08/18 01:12:13;;;;;;;10.10;4.75;;;16.60;70.80;;;;;;5044156;28;20025;-52
2021/08/18 01:14:57;;;;;;;10.05;4.72;;;16.50;70.80;;;;;;5043832;28;20343;-51
2021/08/18 01:17:46;;;;;;;8.30;4.72;;;16.50;71.10;;;;;;5043993;28;20221;-51
2021/08/18 01:20:40;;;;;;;7.78;4.47;;;16.50;71.40;;;;;;5043329;28;20037;-54
2021/08/18 01:23:24;;;;;;;11.13;5.10;;;16.50;71.60;;;;;;5044221;28;20071;-54
2021/08/18 01:26:09;;;;;;;9.23;4.53;;;16.40;71.10;;;;;;5044101;28;20067;-54
2021/08/18 01:28:53;;;;;;;10.05;5.15;;;16.40;71.40;;;;;;5043061;28;20041;-52
2021/08/18 01:31:37;;;;;;;9.60;5.03;;;16.40;71.50;;;;;;5048142;28;20395;-52
2021/08/18 01:34:21;;;;;;;12.30;5.43;;;16.30;71.70;;;;;;5048265;28;20032;-53
2021/08/18 01:37:06;;;;;;;10.02;4.95;;;16.40;71.90;;;;;;5047762;28;20304;-51
2021/08/18 01:39:50;;;;;;;11.25;4.95;;;16.30;72.00;;;;;;5047926;28;20024;-52
2021/08/18 01:42:36;;;;;;;10.40;5.03;;;16.40;72.00;;;;;;5047566;28;20084;-53
2021/08/18 01:45:41;;;;;;;10.75;5.60;;;16.40;71.90;;;;;;5046605;28;20079;-50
2021/08/18 01:48:29;;;;;;;9.90;4.90;;;16.30;71.40;;;;;;5047898;28;20044;-52
2021/08/18 01:51:13;;;;;;;11.38;4.80;;;16.30;71.30;;;;;;5047465;28;20024;-51
2021/08/18 01:53:57;;;;;;;10.10;4.60;;;16.30;71.20;;;;;;5047591;28;20080;-51
2021/08/18 01:56:41;;;;;;;12.98;4.97;;;16.20;71.10;;;;;;5047384;28;20032;-52
2021/08/18 01:59:27;;;;;;;10.25;4.82;;;16.10;71.20;;;;;;5047743;28;20071;-51
2021/08/18 02:02:11;;;;;;;10.90;4.85;;;16.10;71.30;;;;;;5047429;28;20095;-53
2021/08/18 02:04:56;;;;;;;12.75;5.10;;;16.10;71.40;;;;;;5047114;28;20394;-54
2021/08/18 02:07:40;;;;;;;10.82;5.28;;;16.10;71.70;;;;;;5047069;28;20075;-54
2021/08/18 02:10:25;;;;;;;9.73;4.75;;;16.10;71.70;;;;;;5047160;28;20384;-50
2021/08/18 02:13:10;;;;;;;11.30;4.90;;;16.00;71.90;;;;;;5046929;28;20383;-51
2021/08/18 02:15:54;;;;;;;9.65;4.82;;;16.00;72.00;;;;;;5045939;28;20032;-53
2021/08/18 02:18:38;;;;;;;8.75;4.90;;;16.00;71.90;;;;;;5047013;28;20068;-52
2021/08/18 02:21:23;;;;;;;13.43;4.95;;;16.00;71.90;;;;;;5046790;28;20054;-53
2021/08/18 02:24:07;;;;;;;8.60;4.35;;;15.90;71.90;;;;;;5047013;28;20025;-51
2021/08/18 02:26:51;;;;;;;10.45;5.43;;;15.90;72.00;;;;;;5046884;28;20435;-50
2021/08/18 02:29:35;;;;;;;11.88;5.05;;;15.90;72.40;;;;;;5046739;28;20041;-53
2021/08/18 02:32:20;;;;;;;11.30;5.03;;;15.80;72.60;;;;;;5046579;28;20056;-52
2021/08/18 02:35:04;;;;;;;7.82;4.32;;;15.90;72.80;;;;;;5045571;28;20044;-52
2021/08/18 02:37:49;;;;;;;8.88;4.53;;;15.80;73.10;;;;;;5046840;28;20072;-52
2021/08/18 02:40:33;;;;;;;10.88;5.38;;;15.80;72.70;;;;;;5046683;28;20087;-52
2021/08/18 02:43:17;;;;;;;8.48;4.60;;;15.90;72.90;;;;;;5046462;28;20028;-54
2021/08/18 02:46:01;;;;;;;10.00;5.20;;;15.90;72.90;;;;;;5045550;28;20348;-51
2021/08/18 02:48:45;;;;;;;9.93;4.80;;;15.80;73.10;;;;;;5046422;28;20370;-50
2021/08/18 02:51:30;;;;;;;10.57;5.20;;;15.80;73.10;;;;;;5046259;28;20072;-51
2021/08/18 02:54:14;;;;;;;14.65;5.15;;;15.80;73.30;;;;;;5046137;28;20032;-49
2021/08/18 02:56:59;;;;;;;11.18;4.75;;;15.80;73.50;;;;;;5046574;28;20021;-51
2021/08/18 02:59:43;;;;;;;10.43;5.07;;;15.80;73.30;;;;;;5046189;28;20040;-52
2021/08/18 03:02:27;;;;;;;11.48;4.95;;;15.80;73.30;;;;;;5046675;28;20080;-52
2021/08/18 03:05:12;;;;;;;8.52;4.68;;;15.80;73.50;;;;;;5046170;28;20039;-52
2021/08/18 03:07:56;;;;;;;11.45;5.18;;;15.80;73.60;;;;;;5045906;28;20044;-52
2021/08/18 03:10:40;;;;;;;9.30;4.90;;;15.70;73.70;;;;;;5045843;28;20033;-53
2021/08/18 03:13:25;;;;;;;10.82;4.75;;;15.70;73.90;;;;;;5045837;28;20044;-53
2021/08/18 03:16:09;;;;;;;9.75;5.05;;;15.70;73.90;;;;;;5045930;28;20209;-50
2021/08/18 03:18:54;;;;;;;11.20;5.57;;;15.70;74.00;;;;;;5045733;28;20347;-54
2021/08/18 03:21:38;;;;;;;9.57;5.15;;;15.70;74.20;;;;;;5045809;28;20048;-50
2021/08/18 03:24:22;;;;;;;11.52;5.47;;;15.70;74.30;;;;;;5045550;28;20028;-50
2021/08/18 03:27:07;;;;;;;9.82;5.13;;;15.70;74.40;;;;;;5046078;28;20052;-53
2021/08/18 03:29:51;;;;;;;10.63;5.50;;;15.70;74.50;;;;;;5045638;28;20056;-52
2021/08/18 03:32:35;;;;;;;13.05;5.63;;;15.70;74.50;;;;;;5045379;28;20398;-50
2021/08/18 03:35:20;;;;;;;12.30;5.63;;;15.70;74.60;;;;;;5045743;28;20052;-53
2021/08/18 03:38:04;;;;;;;10.35;5.05;;;15.70;74.50;;;;;;5045915;28;20036;-53
2021/08/18 03:40:52;;;;;;;11.15;5.88;;;15.60;74.70;;;;;;5044730;28;20269;-52
2021/08/18 03:43:36;;;;;;;12.50;5.72;;;15.70;74.70;;;;;;5045561;28;20083;-51
2021/08/18 03:46:20;;;;;;;14.77;5.93;;;15.70;74.50;;;;;;5045461;28;20044;-51
2021/08/18 03:49:05;;;;;;;12.80;5.70;;;15.70;74.50;;;;;;5045404;28;20240;-53
2021/08/18 03:51:50;;;;;;;11.70;5.80;;;15.70;74.60;;;;;;5045371;28;20044;-50
2021/08/18 03:54:35;;;;;;;13.75;6.68;;;15.70;74.60;;;;;;5044070;28;20037;-51
2021/08/18 03:57:19;;;;;;;13.40;6.57;;;15.60;74.60;;;;;;5030113;28;20021;-52
2021/08/18 04:00:04;;;;;;;14.18;5.60;;;15.70;74.70;;;;;;5045436;28;20025;-54
2021/08/18 04:02:49;;;;;;;19.35;6.22;;;15.70;74.80;;;;;;5045039;28;20037;-54
2021/08/18 04:05:33;;;;;;;11.05;5.93;;;15.70;74.80;;;;;;5045421;28;20044;-51
2021/08/18 04:08:17;;;;;;;13.63;6.15;;;15.70;74.70;;;;;;5045215;28;20052;-52
2021/08/18 04:11:05;;;;;;;14.77;6.53;;;15.70;74.90;;;;;;5044845;28;20068;-52
2021/08/18 04:13:49;;;;;;;15.40;6.50;;;15.70;74.90;;;;;;5044739;28;20079;-54
2021/08/18 04:16:33;;;;;;;12.23;6.32;;;15.80;74.90;;;;;;5045106;28;20036;-51
2021/08/18 04:19:18;;;;;;;15.75;5.68;;;15.80;75.00;;;;;;5043873;28;20063;-54
2021/08/18 04:22:03;;;;;;;10.85;5.75;;;15.80;75.40;;;;;;5044642;28;20029;-53
2021/08/18 04:24:47;;;;;;;15.50;6.60;;;15.80;75.30;;;;;;5044411;28;20342;-53
2021/08/18 04:27:32;;;;;;;12.48;6.13;;;15.80;75.40;;;;;;5044472;28;20029;-55
2021/08/18 04:30:17;;;;;;;14.57;6.47;;;15.80;75.20;;;;;;5043514;28;20068;-54
2021/08/18 04:33:01;;;;;;;11.88;5.93;;;15.80;75.10;;;;;;5044696;28;20040;-54
2021/08/18 04:35:45;;;;;;;11.60;5.57;;;15.80;75.00;;;;;;5044433;28;20031;-53
2021/08/18 04:38:29;;;;;;;13.18;5.68;;;15.80;74.80;;;;;;5044752;28;20067;-53
2021/08/18 04:41:13;;;;;;;10.52;5.63;;;15.80;75.10;;;;;;5044267;28;20049;-52
2021/08/18 04:43:57;;;;;;;13.07;6.28;;;15.80;75.00;;;;;;5044206;28;20273;-52
2021/08/18 04:46:42;;;;;;;11.43;5.70;;;15.80;74.90;;;;;;5044331;28;20071;-53
2021/08/18 04:49:26;;;;;;;11.10;5.25;;;15.80;74.90;;;;;;5044384;28;20037;-52
2021/08/18 04:52:10;;;;;;;10.73;5.65;;;15.80;75.00;;;;;;5044190;28;20201;-52
2021/08/18 04:54:54;;;;;;;13.00;5.72;;;15.80;75.00;;;;;;5043996;28;20394;-54
2021/08/18 04:57:39;;;;;;;15.00;6.60;;;15.90;75.00;;;;;;5044063;28;20208;-54
2021/08/18 05:00:23;;;;;;;14.60;6.03;;;15.80;75.10;;;;;;5043959;28;20036;-54
2021/08/18 05:03:12;;;;;;;15.18;6.07;;;15.90;75.10;;;;;;5044578;28;20044;-53
2021/08/18 05:05:56;;;;;;;12.02;5.78;;;15.90;75.10;;;;;;5043657;28;20064;-53
2021/08/18 05:08:40;;;;;;;11.05;5.57;;;15.90;75.20;;;;;;5044498;28;20075;-54
2021/08/18 05:11:25;;;;;;;12.98;5.75;;;15.90;75.30;;;;;;5044063;28;20345;-54
2021/08/18 05:14:09;;;;;;;13.10;5.68;;;15.90;75.30;;;;;;5043425;28;20367;-53
2021/08/18 05:16:54;;;;;;;11.15;5.90;;;16.00;75.40;;;;;;5043737;28;20104;-52
2021/08/18 05:19:39;;;;;;;13.50;6.93;;;16.00;75.40;;;;;;5043947;28;20032;-53
2021/08/18 05:22:23;;;;;;;13.32;7.30;;;16.10;75.50;;;;;;5043753;28;20035;-54
2021/08/18 05:25:08;;;;;;;13.18;6.53;;;16.10;75.50;;;;;;5043539;28;20020;-54
2021/08/18 05:27:52;;;;;;;13.18;6.15;;;16.00;75.30;;;;;;5043745;28;20032;-51
2021/08/18 05:30:37;;;;;;;13.00;6.18;;;16.10;75.40;;;;;;5043571;28;20044;-54
2021/08/18 05:33:21;;;;;;;14.43;6.60;;;16.10;75.40;;;;;;5043438;28;20044;-51
2021/08/18 05:36:07;;;;;;;14.25;6.57;;;16.10;75.40;;;;;;5043969;28;20273;-54
2021/08/18 05:38:51;;;;;;;17.50;6.60;;;16.20;75.50;;;;;;5043663;28;20055;-52
2021/08/18 05:41:35;;;;;;;14.57;7.03;;;16.10;75.20;;;;;;5043782;28;20205;-53
2021/08/18 05:44:20;;;;;;;14.85;6.80;;;16.20;75.10;;;;;;5043872;28;20096;-54
2021/08/18 05:47:04;;;;;;;15.70;7.57;;;16.20;75.10;;;;;;5042918;28;20048;-53
2021/08/18 05:49:49;;;;;;;14.55;7.38;;;16.20;75.40;;;;;;5043762;28;20075;-53
2021/08/18 05:52:33;;;;;;;16.88;7.80;;;16.20;75.40;;;;;;5043837;28;20040;-54
2021/08/18 05:55:17;;;;;;;15.18;7.63;;;16.20;75.50;;;;;;5042837;28;20028;-54
2021/08/18 05:58:01;;;;;;;15.55;7.38;;;16.20;75.50;;;;;;5043387;28;20072;-53
2021/08/18 06:00:45;;;;;;;13.35;6.72;;;16.20;75.40;;;;;;5043354;28;20028;-55
2021/08/18 06:03:30;;;;;;;15.80;7.28;;;16.30;75.40;;;;;;5043158;28;20096;-54
2021/08/18 06:06:14;;;;;;;14.85;7.45;;;16.30;75.30;;;;;;5043218;28;20025;-54
2021/08/18 06:08:58;;;;;;;14.50;7.10;;;16.30;75.50;;;;;;5043665;28;20252;-54
2021/08/18 06:11:43;;;;;;;17.10;7.65;;;16.30;75.40;;;;;;5043301;28;20037;-54
2021/08/18 06:14:27;;;;;;;18.90;8.45;;;16.30;75.50;;;;;;5043493;28;20430;-53
2021/08/18 06:17:11;;;;;;;18.70;8.05;;;16.30;75.40;;;;;;5045441;28;20041;-53
2021/08/18 06:19:55;;;;;;;16.30;8.18;;;16.30;75.50;;;;;;5046839;28;20352;-54
2021/08/18 06:22:40;;;;;;;18.08;8.38;;;16.40;75.30;;;;;;5046922;28;20374;-54
2021/08/18 06:25:24;;;;;;;18.73;7.70;;;16.40;75.20;;;;;;5046659;28;20097;-52
2021/08/18 06:28:08;;;;;;;18.83;8.70;;;16.50;75.20;;;;;;5046580;28;20072;-51
2021/08/18 06:30:53;;;;;;;21.33;9.00;;;16.50;75.50;;;;;;5046768;28;20029;-54
2021/08/18 06:33:37;;;;;;;19.15;8.73;;;16.60;75.40;;;;;;5046463;28;20045;-54
2021/08/18 06:36:21;;;;;;;17.65;8.55;;;16.60;75.40;;;;;;5046473;28;20064;-53
2021/08/18 06:39:05;;;;;;;17.40;9.00;;;16.60;75.10;;;;;;5046646;28;20025;-54
2021/08/18 06:41:49;;;;;;;16.85;8.85;;;16.60;74.90;;;;;;5046346;28;20063;-54
2021/08/18 06:44:34;;;;;;;21.23;9.55;;;16.70;74.70;;;;;;5046892;28;20032;-53
2021/08/18 06:47:18;;;;;;;19.50;9.40;;;16.70;74.80;;;;;;5046377;28;20048;-54
2021/08/18 06:50:03;;;;;;;22.27;9.32;;;16.70;74.60;;;;;;5046306;28;20033;-51
2021/08/18 06:52:47;;;;;;;22.33;9.77;;;16.70;74.70;;;;;;5046210;28;20236;-54
2021/08/18 06:55:31;;;;;;;18.48;9.13;;;16.80;74.70;;;;;;5046216;28;20060;-54
2021/08/18 06:58:15;;;;;;;23.88;10.10;;;16.80;74.50;;;;;;5046397;28;20094;-54
2021/08/18 07:01:00;;;;;;;20.63;9.50;;;16.80;74.30;;;;;;5046185;28;20029;-54
2021/08/18 07:03:44;;;;;;;18.30;10.10;;;16.80;74.40;;;;;;5046167;28;20079;-53
2021/08/18 07:06:28;;;;;;;24.17;10.27;;;16.80;74.10;;;;;;5046739;28;20363;-54
2021/08/18 07:09:12;;;;;;;23.10;10.82;;;16.80;74.20;;;;;;5046457;28;20048;-55
2021/08/18 07:11:56;;;;;;;22.67;10.75;;;16.90;73.80;;;;;;5045047;28;20094;-53
2021/08/18 07:14:40;;;;;;;19.92;10.25;;;16.90;73.70;;;;;;5045956;28;20149;-55
2021/08/18 07:17:24;;;;;;;22.23;9.70;;;17.00;74.00;;;;;;5045469;28;20032;-53
2021/08/18 07:20:09;;;;;;;20.98;10.60;;;17.10;74.40;;;;;;5045825;28;20033;-55
2021/08/18 07:22:53;;;;;;;20.42;9.88;;;17.10;74.20;;;;;;5045871;28;20213;-53
2021/08/18 07:25:37;;;;;;;21.55;10.68;;;17.20;74.20;;;;;;5045679;28;20072;-52
2021/08/18 07:28:22;;;;;;;20.58;10.05;;;17.30;74.00;;;;;;5044733;28;20032;-54
2021/08/18 07:31:06;;;;;;;21.95;10.30;;;17.40;73.30;;;;;;5045842;28;20105;-55
2021/08/18 07:33:50;;;;;;;21.00;10.40;;;17.40;72.90;;;;;;5045429;28;20071;-51
2021/08/18 07:36:34;;;;;;;20.85;9.80;;;17.40;72.80;;;;;;5045545;28;20373;-55
2021/08/18 07:39:18;;;;;;;19.40;10.00;;;17.50;72.40;;;;;;5045404;28;20209;-55
2021/08/18 07:42:03;;;;;;;18.08;9.77;;;17.60;72.50;;;;;;5046252;28;20020;-54
2021/08/18 07:44:47;;;;;;;22.02;10.95;;;17.80;72.40;;;;;;5045928;28;20079;-55
2021/08/18 07:47:32;;;;;;;20.80;10.00;;;17.80;71.90;;;;;;5044817;28;20375;-55
2021/08/18 07:50:16;;;;;;;23.50;10.60;;;18.00;71.60;;;;;;5045685;28;20025;-54
2021/08/18 07:53:00;;;;;;;18.20;9.82;;;18.10;71.50;;;;;;5045380;28;20217;-55
2021/08/18 07:55:44;;;;;;;20.02;11.00;;;18.10;70.90;;;;;;5045498;28;20032;-55
2021/08/18 07:58:29;;;;;;;20.15;10.20;;;18.30;71.30;;;;;;5045373;28;20036;-55
2021/08/18 08:01:13;;;;;;;22.25;10.73;;;18.20;70.60;;;;;;5045367;28;20193;-55
2021/08/18 08:03:57;;;;;;;22.88;11.00;;;18.30;69.90;;;;;;5045163;28;20386;-55
2021/08/18 08:06:41;;;;;;;24.38;11.18;;;18.30;69.30;;;;;;5045219;28;20064;-55
2021/08/18 08:09:26;;;;;;;23.40;10.43;;;18.30;69.60;;;;;;5044858;28;20064;-55
2021/08/18 08:12:10;;;;;;;20.17;10.25;;;18.40;69.10;;;;;;5045267;28;20351;-55
2021/08/18 08:14:54;;;;;;;18.88;9.60;;;18.30;68.40;;;;;;5044911;28;20052;-56
2021/08/18 08:17:38;;;;;;;18.55;9.50;;;18.40;68.50;;;;;;5044702;28;20075;-54
2021/08/18 08:20:23;;;;;;;19.27;9.88;;;18.40;68.80;;;;;;5045129;28;20041;-55
2021/08/18 08:23:07;;;;;;;19.63;10.07;;;18.40;68.80;;;;;;5044503;28;20028;-55
2021/08/18 08:25:51;;;;;;;21.27;10.10;;;18.40;68.40;;;;;;5043777;28;20308;-54
2021/08/18 08:28:35;;;;;;;17.25;9.20;;;18.50;68.60;;;;;;5044515;28;20101;-55
2021/08/18 08:31:20;;;;;;;16.48;9.00;;;18.50;68.60;;;;;;5044808;28;20142;-55
2021/08/18 08:34:04;;;;;;;18.33;9.68;;;18.60;68.30;;;;;;5044359;28;20072;-54
2021/08/18 08:36:49;;;;;;;19.42;8.85;;;18.60;68.50;;;;;;5044215;28;20087;-55
2021/08/18 08:39:33;;;;;;;16.85;9.00;;;18.70;68.10;;;;;;5043163;28;20082;-55
2021/08/18 08:42:17;;;;;;;17.10;9.02;;;18.70;67.50;;;;;;5043373;28;20024;-55
2021/08/18 08:45:02;;;;;;;18.23;8.48;;;18.80;67.90;;;;;;5044869;28;20016;-55
2021/08/18 08:47:46;;;;;;;16.45;8.40;;;18.80;67.70;;;;;;5043455;28;20347;-54
2021/08/18 08:50:30;;;;;;;15.82;8.40;;;18.80;67.20;;;;;;5044631;28;20064;-55
2021/08/18 08:53:14;;;;;;;17.55;8.80;;;18.80;66.90;;;;;;5043199;28;20072;-55
2021/08/18 08:55:58;;;;;;;18.52;8.80;;;18.80;67.00;;;;;;5044122;28;20032;-55
2021/08/18 08:58:42;;;;;;;16.85;8.43;;;18.90;67.00;;;;;;5044561;28;20064;-51
2021/08/18 09:01:27;;;;;;;14.93;8.20;;;18.80;66.70;;;;;;5044059;28;20033;-55
2021/08/18 09:04:34;;;;;;;17.75;8.70;;;18.80;66.30;;;;;;5043923;28;20068;-55
2021/08/18 09:07:21;;;;;;;18.25;8.77;;;18.90;66.90;;;;;;5031915;28;20052;-53
2021/08/18 09:10:06;;;;;;;16.75;8.93;;;18.90;66.60;;;;;;5043826;28;20025;-55
2021/08/18 09:12:50;;;;;;;18.90;8.18;;;18.90;66.70;;;;;;5043655;28;20044;-55
2021/08/18 09:15:35;;;;;;;16.38;9.07;;;19.00;66.50;;;;;;5043806;28;20339;-55
2021/08/18 09:18:19;;;;;;;18.67;8.65;;;18.90;66.40;;;;;;5043966;28;20072;-53
2021/08/18 09:21:03;;;;;;;17.33;8.38;;;19.00;66.60;;;;;;5029406;28;20067;-55
2021/08/18 09:23:47;;;;;;;15.10;8.43;;;19.00;66.30;;;;;;5029041;28;20036;-55
2021/08/18 09:26:32;;;;;;;16.50;8.48;;;19.00;66.50;;;;;;5044213;28;20064;-55
2021/08/18 09:29:49;;;;;;;20.05;8.50;;;19.10;66.90;;;;;;5029429;28;20084;-55
2021/08/18 09:32:36;;;;;;;16.52;8.50;;;19.10;65.60;;;;;;5026648;28;20044;-55
2021/08/18 09:35:21;;;;;;;16.95;8.13;;;19.20;66.00;;;;;;5043925;28;20064;-55
2021/08/18 09:38:13;;;;;;;17.55;8.57;;;19.20;65.80;;;;;;5043699;28;20040;-54
2021/08/18 09:40:57;;;;;;;15.75;8.35;;;19.20;65.60;;;;;;5043908;28;20109;-55
2021/08/18 09:43:42;;;;;;;14.05;8.00;;;19.30;66.20;;;;;;5043407;28;20033;-54
2021/08/18 09:46:27;;;;;;;16.48;8.30;;;19.40;66.20;;;;;;5043513;28;20321;-55
2021/08/18 09:49:12;;;;;;;17.52;8.73;;;19.40;66.70;;;;;;5043426;28;20216;-55
2021/08/18 09:51:59;;;;;;;14.88;7.25;;;19.50;65.70;;;;;;5046892;28;20079;-54
2021/08/18 09:54:43;;;;;;;13.98;7.47;;;19.60;65.40;;;;;;5047453;28;20083;-54
2021/08/18 09:57:30;;;;;;;11.90;7.05;;;19.60;66.10;;;;;;5047370;28;20079;-55
2021/08/18 10:00:14;;;;;;;13.30;6.35;;;19.60;65.30;;;;;;5047320;28;20024;-55
2021/08/18 10:02:58;;;;;;;12.30;6.28;;;19.60;65.00;;;;;;5047858;28;20419;-54
2021/08/18 10:05:42;;;;;;;15.35;7.30;;;19.80;65.20;;;;;;5047503;28;20059;-54
2021/08/18 10:08:27;;;;;;;15.05;7.03;;;19.80;64.60;;;;;;5046656;28;20355;-55
2021/08/18 10:11:16;;;;;;;13.25;6.63;;;19.80;64.50;;;;;;5046506;28;20423;-55
2021/08/18 10:14:00;;;;;;;14.70;7.05;;;19.80;64.50;;;;;;5047072;28;20087;-53
2021/08/18 10:16:44;;;;;;;12.35;6.28;;;19.80;64.70;;;;;;5047269;28;20028;-54
2021/08/18 10:19:29;;;;;;;10.48;6.28;;;19.80;64.10;;;;;;5047263;28;20060;-55
2021/08/18 10:22:13;;;;;;;13.20;6.50;;;19.80;63.90;;;;;;5046975;28;20048;-55
2021/08/18 10:24:57;;;;;;;12.27;6.95;;;19.80;63.20;;;;;;5045989;28;20029;-55
2021/08/18 10:27:50;;;;;;;19.20;7.28;;;19.80;63.70;;;;;;5031866;28;20028;-55
2021/08/18 10:30:51;;;;;;;13.07;7.03;;;19.80;63.10;;;;;;5046479;28;20028;-55
2021/08/18 10:33:53;;;;;;;12.45;6.88;;;19.70;63.90;;;;;;5045765;28;20037;-54
2021/08/18 10:36:48;;;;;;;13.40;7.00;;;19.70;63.10;;;;;;5046764;28;20049;-55
2021/08/18 10:39:38;;;;;;;15.70;7.57;;;19.70;64.10;;;;;;5046588;28;20037;-55
2021/08/18 10:42:35;;;;;;;14.33;6.83;;;19.70;64.10;;;;;;5045560;28;20387;-55
2021/08/18 10:45:20;;;;;;;13.95;7.00;;;19.80;63.60;;;;;;5046444;28;20259;-55
2021/08/18 10:48:05;;;;;;;12.25;7.15;;;19.80;63.60;;;;;;5046986;28;20094;-55
2021/08/18 10:50:49;;;;;;;17.90;7.38;;;19.80;63.20;;;;;;5046540;28;20052;-55
2021/08/18 10:53:33;;;;;;;11.52;6.38;;;19.80;63.50;;;;;;5046704;28;20371;-55
2021/08/18 10:56:44;;;;;;;14.93;7.30;;;19.80;63.40;;;;;;5046263;28;20127;-54
2021/08/18 10:59:34;;;;;;;17.08;6.70;;;19.80;63.20;;;;;;5046825;28;20040;-54
2021/08/18 11:02:53;;;;;;;11.80;6.93;;;19.80;63.70;;;;;;5046268;28;20051;-55
2021/08/18 11:05:37;;;;;;;15.65;7.18;;;19.80;62.50;;;;;;5046212;28;20044;-51
2021/08/18 11:08:40;;;;;;;12.68;6.80;;;19.80;62.60;;;;;;5045584;28;20116;-54
2021/08/18 11:11:24;;;;;;;13.13;6.47;;;19.70;62.70;;;;;;5046210;28;20228;-54
2021/08/18 11:14:09;;;;;;;10.20;6.20;;;19.80;63.00;;;;;;5045851;28;20099;-54
2021/08/18 11:16:53;;;;;;;12.07;6.32;;;19.80;63.10;;;;;;5045859;28;20040;-55
2021/08/18 11:19:38;;;;;;;12.43;6.03;;;19.80;64.20;;;;;;5046171;28;20031;-55
2021/08/18 11:22:23;;;;;;;12.57;6.78;;;19.80;63.90;;;;;;5045095;28;20140;-55
2021/08/18 11:25:07;;;;;;;12.65;6.53;;;19.80;63.20;;;;;;5044907;28;20044;-54
2021/08/18 11:27:55;;;;;;;12.43;5.93;;;19.80;63.60;;;;;;5044876;28;20064;-55
2021/08/18 11:30:39;;;;;;;12.30;6.60;;;19.90;64.20;;;;;;5045680;28;20032;-55
2021/08/18 11:33:24;;;;;;;14.35;7.20;;;19.90;64.10;;;;;;5045457;28;20045;-55
2021/08/18 11:36:15;;;;;;;14.25;6.70;;;19.90;64.00;;;;;;5046077;28;20080;-54
2021/08/18 11:39:01;;;;;;;12.10;6.45;;;19.90;63.60;;;;;;5030717;28;20052;-55
2021/08/18 11:41:46;;;;;;;12.55;6.40;;;19.90;63.60;;;;;;5044749;28;20056;-54
2021/08/18 11:44:31;;;;;;;10.15;5.88;;;19.90;63.80;;;;;;5045359;28;20351;-55
2021/08/18 11:47:16;;;;;;;10.25;5.70;;;19.90;63.70;;;;;;5045880;28;20359;-55
2021/08/18 11:50:02;;;;;;;10.65;5.90;;;19.90;63.10;;;;;;5045368;28;20036;-56
2021/08/18 11:52:50;;;;;;;9.38;5.40;;;19.90;63.70;;;;;;5045267;28;20044;-55
2021/08/18 11:55:35;;;;;;;13.13;5.80;;;19.90;63.50;;;;;;5045289;28;20047;-55
2021/08/18 11:58:19;;;;;;;10.10;5.47;;;19.90;63.90;;;;;;5045407;28;20028;-55
2021/08/18 12:01:05;;;;;;;10.63;5.45;;;19.90;63.90;;;;;;5030235;28;20032;-54
2021/08/18 12:03:50;;;;;;;9.52;5.25;;;20.00;63.50;;;;;;5045191;28;20036;-54
2021/08/18 12:06:36;;;;;;;8.63;4.90;;;20.20;63.40;;;;;;5045501;28;20072;-55
2021/08/18 12:09:21;;;;;;;11.43;5.88;;;20.30;63.20;;;;;;5044823;28;20067;-55
2021/08/18 12:12:07;;;;;;;12.00;5.45;;;20.20;62.50;;;;;;5045346;28;20213;-55
2021/08/18 12:14:51;;;;;;;10.48;6.03;;;20.30;62.90;;;;;;5042951;28;20113;-55
2021/08/18 12:17:40;;;;;;;10.40;5.75;;;20.30;62.40;;;;;;5044766;28;20083;-55
2021/08/18 12:20:33;;;;;;;10.88;5.20;;;20.30;63.80;;;;;;5044778;28;20032;-53
2021/08/18 12:23:23;;;;;;;9.80;5.07;;;20.30;64.40;;;;;;5045013;28;20067;-53
2021/08/18 12:26:34;;;;;;;11.63;5.40;;;20.30;64.50;;;;;;5044973;28;20228;-52
2021/08/18 12:29:19;;;;;;;9.05;4.63;;;20.30;65.00;;;;;;5045011;28;20040;-53
2021/08/18 12:32:06;;;;;;;8.77;4.28;;;20.50;64.50;;;;;;5044925;28;20035;-52
2021/08/18 12:35:00;;;;;;;9.40;4.57;;;20.60;63.90;;;;;;5044502;28;20048;-53
2021/08/18 12:37:52;;;;;;;9.50;3.97;;;20.70;63.50;;;;;;5044575;28;20217;-52
2021/08/18 12:40:37;;;;;;;7.90;3.78;;;20.80;62.70;;;;;;5044530;28;20144;-53
2021/08/18 12:43:21;;;;;;;7.93;4.15;;;20.90;63.00;;;;;;5044377;28;20028;-53
2021/08/18 12:46:05;;;;;;;7.35;3.92;;;21.00;63.10;;;;;;5044400;28;20184;-53
2021/08/18 12:48:50;;;;;;;7.47;4.07;;;21.10;62.60;;;;;;5043403;28;20068;-53
2021/08/18 12:51:34;;;;;;;8.27;3.60;;;21.10;62.90;;;;;;5044070;28;20033;-53
2021/08/18 12:54:18;;;;;;;5.97;3.55;;;21.10;61.90;;;;;;5043790;28;20107;-52
2021/08/18 12:57:04;;;;;;;6.90;3.70;;;21.20;61.10;;;;;;5044584;28;20085;-56
2021/08/18 12:59:48;;;;;;;5.97;3.30;;;21.30;60.60;;;;;;5044249;28;20041;-55
2021/08/18 13:02:32;;;;;;;10.75;3.70;;;21.30;60.10;;;;;;5043602;28;20260;-53
2021/08/18 13:05:17;;;;;;;7.25;3.60;;;21.40;60.30;;;;;;5043513;28;20029;-52
2021/08/18 13:08:01;;;;;;;5.45;3.10;;;21.40;59.80;;;;;;5043984;28;20067;-52
2021/08/18 13:10:45;;;;;;;8.10;3.53;;;21.50;59.80;;;;;;5044164;28;20025;-53
2021/08/18 13:13:29;;;;;;;6.05;3.20;;;21.50;59.90;;;;;;5043702;28;20068;-53
2021/08/18 13:16:14;;;;;;;5.75;3.30;;;21.50;58.90;;;;;;5044048;28;20020;-53
2021/08/18 13:18:58;;;;;;;6.43;3.20;;;21.50;59.20;;;;;;5044176;28;20032;-53
2021/08/18 13:21:42;;;;;;;7.22;3.55;;;21.50;58.30;;;;;;5043860;28;20064;-51
2021/08/18 13:24:26;;;;;;;5.82;3.63;;;21.50;58.50;;;;;;5043778;28;20040;-52
2021/08/18 13:27:11;;;;;;;8.70;4.25;;;21.50;59.30;;;;;;5043880;28;20029;-52
2021/08/18 13:29:55;;;;;;;6.30;3.60;;;21.50;58.90;;;;;;5043860;28;20224;-52
2021/08/18 13:32:39;;;;;;;5.65;3.33;;;21.60;59.60;;;;;;5043644;28;20055;-53
2021/08/18 13:35:29;;;;;;;7.50;3.75;;;21.60;60.30;;;;;;5043836;28;20220;-52
2021/08/18 13:38:13;;;;;;;8.43;4.60;;;21.60;59.80;;;;;;5043413;28;20039;-53
2021/08/18 13:40:57;;;;;;;6.65;3.55;;;21.60;58.80;;;;;;5043924;28;20040;-54
2021/08/18 13:43:41;;;;;;;6.78;3.28;;;21.70;58.60;;;;;;5043637;28;20351;-53
2021/08/18 13:46:26;;;;;;;7.60;3.85;;;21.80;58.60;;;;;;5043649;28;20048;-53
2021/08/18 13:49:12;;;;;;;6.72;3.47;;;21.80;58.60;;;;;;5043817;28;20067;-53
2021/08/18 13:51:56;;;;;;;5.20;3.08;;;21.80;59.40;;;;;;5043697;28;20362;-53
2021/08/18 13:54:40;;;;;;;7.30;3.20;;;21.80;59.90;;;;;;5043298;28;20124;-53
2021/08/18 13:57:25;;;;;;;7.55;3.60;;;21.80;60.20;;;;;;5043474;28;20071;-53
2021/08/18 14:00:10;;;;;;;8.10;3.60;;;21.80;59.80;;;;;;5043881;28;20072;-53
2021/08/18 14:02:54;;;;;;;6.38;3.22;;;21.80;58.90;;;;;;5043199;28;20352;-53
2021/08/18 14:05:38;;;;;;;6.30;3.30;;;21.80;57.90;;;;;;5043524;28;20083;-53
2021/08/18 14:08:22;;;;;;;5.95;3.40;;;21.80;58.20;;;;;;5044161;28;20087;-52
2021/08/18 14:11:07;;;;;;;6.22;3.40;;;21.80;58.20;;;;;;5043267;28;20037;-53